Airfield :
LOGIN :

Register | Disclaimer

   EN    FR    IT 

 










Legend :    VFR   Marginal VFR   IFR   Intensive IFR   Very Intensive IFR
Visi :
Ceiling :
>= 8 km
>= 3000ft
5 to 8 km
1000 to 3000 ft
1500m to 5 km
500 to 1000 ft
800 to 1500m
200 to 500 ft
< 800m
< 200 ft
Symbols :   Thunderstorms  Fog  Heavy snow  Heavy precipitations  Wind > 20 kt
SIGMETs :     Misc.  Thunderstorms  Icing  Turbulence  Mountain Waves  Volcanic Ashes







- Airport Elevation : 17 ft
- IATA code : GRQ


EHGG - Groningen Eelde

CURRENT METAR :
  • 191325Z AUTO VRB01KT 9999 NSC 13/05 Q1025 NOSIG

EXPIRED METARs :
  • 191255Z AUTO 06004KT 340V110 9999 NSC 13/05 Q1026 NOSIG
  • 191225Z AUTO VRB02KT 9999 FEW033 13/05 Q1026 NOSIG
  • 191155Z AUTO 07004KT 360V160 9999 NSC 13/05 Q1026 NOSIG
  • 191125Z AUTO VRB03KT 0600 R05/P2000N HZ NSC 13/05 Q1026 NOSIG
  • 191055Z AUTO 10004KT 040V180 9999 NSC 12/05 Q1026 NOSIG

TAF TAF EHGG
Valid from the 19 at 12:00 until the 20 at 18:00 UTC


191115Z 1912/2018 08005KT CAVOK
BECMG 1919/1922 4000 BR MIFG
TEMPO 1921/2005 1500 BCFG
PROB40 1922/2003 0400 FG
BECMG 2006/2008 7000 NSW SCT004
BECMG 2008/2011 9999 BKN020
PROB30 2012/2015 BKN014
No reported NOTAMs for that airfield.



MET'MAP, your aeronautical weather chart ! - Copyright ORBIFLY December 2007 - Disclaimer

ORBIFLY MET'MAP TEAM :

Programming & Development : Alexandra Zaïnal
Concept & Development : Baudouin d'Aumeries
Co-Development & Prog : Marc-Olivier Méhu
Technical & hardware support : Manuel Goepfert

Contact : metmap@orbifly.com




SOURCES & CREDITS :

   NOAA